Time;durP1;ratioP1;P1;durP2;ratioP2;P2;SDS_P1;SDS_P2;PMS_P1;PMS_P2;Temp;Humidity;BMP_temperature;BMP_pressure;BME280_temperature;BME280_humidity;BME280_pressure;Samples;Min_cycle;Max_cycle;Signal;HPM_P1;HPM_P2
2023/03/17 00:00:04;;;;;;;15.00;8.48;;;4.60;99.90;;;;;;2090222;28;20055;-73
2023/03/17 00:01:13;;;;;;;14.30;8.77;;;4.60;99.90;;;;;;2083615;28;20689;-73
2023/03/17 00:02:13;;;;;;;12.63;8.27;;;4.60;99.90;;;;;;2082857;28;20033;-73
2023/03/17 00:03:25;;;;;;;14.25;9.15;;;4.60;99.90;;;;;;2078577;28;20066;-73
2023/03/17 00:04:26;;;;;;;14.25;8.90;;;4.70;99.90;;;;;;2086192;28;20044;-73
2023/03/17 00:05:32;;;;;;;15.30;9.52;;;4.70;99.90;;;;;;2087718;28;20028;-73
2023/03/17 00:06:33;;;;;;;14.98;9.23;;;4.60;99.90;;;;;;2088244;28;20403;-73
2023/03/17 00:07:34;;;;;;;14.75;9.40;;;4.70;99.90;;;;;;2087294;28;20592;-73
2023/03/17 00:08:36;;;;;;;17.05;9.45;;;4.70;99.90;;;;;;2080486;28;20021;-74
2023/03/17 00:09:37;;;;;;;16.52;10.32;;;4.70;99.90;;;;;;2066065;28;20037;-73
2023/03/17 00:10:37;;;;;;;15.27;10.20;;;4.70;99.90;;;;;;2086190;28;20037;-72
2023/03/17 00:11:38;;;;;;;16.63;11.82;;;4.70;99.90;;;;;;2086545;28;20098;-72
2023/03/17 00:12:39;;;;;;;15.77;9.82;;;4.70;99.90;;;;;;2089103;28;20048;-74
2023/03/17 00:13:40;;;;;;;16.35;10.50;;;4.70;99.90;;;;;;2070733;28;20029;-72
2023/03/17 00:14:43;;;;;;;15.52;9.85;;;4.70;99.90;;;;;;2076513;28;20034;-73
2023/03/17 00:15:46;;;;;;;16.92;9.43;;;4.70;99.90;;;;;;2083161;28;21079;-74
2023/03/17 00:16:49;;;;;;;15.43;8.60;;;4.60;99.90;;;;;;2087376;28;20444;-73
2023/03/17 00:17:49;;;;;;;15.60;9.75;;;4.60;99.90;;;;;;2085116;28;20398;-72
2023/03/17 00:18:52;;;;;;;15.15;8.32;;;4.60;99.90;;;;;;2078258;28;20025;-73
2023/03/17 00:19:53;;;;;;;16.85;8.50;;;4.60;99.90;;;;;;2077831;28;20040;-73
2023/03/17 00:20:53;;;;;;;15.45;8.73;;;4.60;99.90;;;;;;2081878;28;20025;-73
2023/03/17 00:21:54;;;;;;;13.20;8.63;;;4.60;99.90;;;;;;2086781;28;20029;-72
2023/03/17 00:22:58;;;;;;;16.67;8.60;;;4.60;99.90;;;;;;2087583;28;20033;-71
2023/03/17 00:24:00;;;;;;;15.55;9.07;;;4.60;99.90;;;;;;2081327;28;20626;-73
2023/03/17 00:25:00;;;;;;;16.10;9.10;;;4.60;99.90;;;;;;2072798;28;20108;-73
2023/03/17 00:26:01;;;;;;;13.48;8.23;;;4.60;99.90;;;;;;2086385;28;20035;-72
2023/03/17 00:27:06;;;;;;;15.82;8.13;;;4.60;99.90;;;;;;2086250;28;20056;-74
2023/03/17 00:28:25;;;;;;;15.02;8.48;;;4.60;99.90;;;;;;2083961;28;20537;-74
2023/03/17 00:29:28;;;;;;;14.80;8.77;;;4.50;99.90;;;;;;2087165;28;20037;-74
2023/03/17 00:30:29;;;;;;;15.15;8.88;;;4.50;99.90;;;;;;2087691;28;20590;-72
2023/03/17 00:31:29;;;;;;;14.23;8.52;;;4.50;99.90;;;;;;2087486;28;20582;-74
2023/03/17 00:32:30;;;;;;;17.02;9.00;;;4.40;99.90;;;;;;2080334;28;20727;-72
2023/03/17 00:33:33;;;;;;;14.10;8.82;;;4.40;99.90;;;;;;2074006;28;20071;-74
2023/03/17 00:34:34;;;;;;;14.55;8.98;;;4.40;99.90;;;;;;2086837;28;20025;-74
2023/03/17 00:35:34;;;;;;;14.70;8.77;;;4.40;99.90;;;;;;2086398;28;20025;-73
2023/03/17 00:36:36;;;;;;;14.82;8.55;;;4.50;99.90;;;;;;2082660;28;20037;-73
2023/03/17 00:37:38;;;;;;;14.00;8.90;;;4.50;99.90;;;;;;2081954;28;20025;-74
2023/03/17 00:38:38;;;;;;;16.63;8.95;;;4.50;99.90;;;;;;2086916;28;20059;-74
2023/03/17 00:39:39;;;;;;;17.30;8.68;;;4.50;99.90;;;;;;2087266;28;20567;-73
2023/03/17 00:40:40;;;;;;;17.80;9.10;;;4.50;99.90;;;;;;2084167;28;20029;-73
2023/03/17 00:41:41;;;;;;;14.98;8.70;;;4.50;99.90;;;;;;2088136;28;20123;-72
2023/03/17 00:42:41;;;;;;;14.68;8.90;;;4.60;99.90;;;;;;2088816;28;20024;-73
2023/03/17 00:43:42;;;;;;;16.45;9.73;;;4.60;99.90;;;;;;2087210;28;20028;-73
2023/03/17 00:44:43;;;;;;;16.05;9.43;;;4.50;99.90;;;;;;2086171;28;20028;-74
2023/03/17 00:45:45;;;;;;;14.77;9.02;;;4.60;99.90;;;;;;2085932;28;20035;-73
2023/03/17 00:46:46;;;;;;;14.13;9.35;;;4.60;99.90;;;;;;2081253;28;20152;-74
2023/03/17 00:47:49;;;;;;;14.10;8.85;;;4.60;99.90;;;;;;2084590;28;20115;-73
2023/03/17 00:48:50;;;;;;;15.23;9.02;;;4.60;99.90;;;;;;2076937;28;20824;-73
2023/03/17 00:49:51;;;;;;;15.48;9.23;;;4.50;99.90;;;;;;2067643;28;20057;-74
2023/03/17 00:50:51;;;;;;;13.77;9.10;;;4.50;99.90;;;;;;2087294;28;20721;-73
2023/03/17 00:51:52;;;;;;;17.02;9.48;;;4.50;99.90;;;;;;2088282;28;20048;-73
2023/03/17 00:52:55;;;;;;;17.45;9.60;;;4.50;99.90;;;;;;2077979;28;20055;-74
2023/03/17 00:53:55;;;;;;;17.45;9.20;;;4.50;99.90;;;;;;2086097;28;20147;-74
2023/03/17 00:54:56;;;;;;;15.88;9.40;;;4.50;99.90;;;;;;2086287;28;20029;-74
2023/03/17 00:55:57;;;;;;;16.05;9.27;;;4.40;99.90;;;;;;2074896;28;20072;-73
2023/03/17 00:56:58;;;;;;;15.32;8.93;;;4.40;99.90;;;;;;2084150;28;20032;-74
2023/03/17 00:57:59;;;;;;;15.57;9.45;;;4.40;99.90;;;;;;2086790;28;20059;-74
2023/03/17 00:59:00;;;;;;;18.30;9.50;;;4.40;99.90;;;;;;2089733;28;20491;-73
2023/03/17 01:00:02;;;;;;;12.73;8.68;;;4.40;99.90;;;;;;2087618;28;20028;-73
2023/03/17 01:01:02;;;;;;;14.00;8.65;;;4.40;99.90;;;;;;2079176;28;20108;-74
2023/03/17 01:02:03;;;;;;;18.60;8.80;;;4.40;99.90;;;;;;2079124;28;20028;-72
2023/03/17 01:03:04;;;;;;;15.25;8.80;;;4.40;99.90;;;;;;2080707;28;20510;-73
2023/03/17 01:04:04;;;;;;;14.98;9.25;;;4.40;99.90;;;;;;2078914;28;20021;-73
2023/03/17 01:05:05;;;;;;;17.05;9.20;;;4.40;99.90;;;;;;2084169;28;20040;-74
2023/03/17 01:06:11;;;;;;;17.45;9.50;;;4.40;99.90;;;;;;2077785;28;20033;-74
2023/03/17 01:07:12;;;;;;;14.90;9.02;;;4.40;99.90;;;;;;2081851;28;20029;-72
2023/03/17 01:08:13;;;;;;;16.50;9.38;;;4.40;99.90;;;;;;2079770;28;20021;-74
2023/03/17 01:09:17;;;;;;;16.25;9.32;;;4.40;99.90;;;;;;2077151;28;20112;-73
2023/03/17 01:10:25;;;;;;;14.38;8.93;;;4.30;99.90;;;;;;2087400;28;20033;-73
2023/03/17 01:11:25;;;;;;;15.90;9.07;;;4.30;99.90;;;;;;2086706;28;20519;-73
2023/03/17 01:12:26;;;;;;;16.17;9.30;;;4.40;99.90;;;;;;2081978;28;20027;-74
2023/03/17 01:13:28;;;;;;;14.48;8.77;;;4.30;99.90;;;;;;2086848;28;20070;-73
2023/03/17 01:14:28;;;;;;;15.63;9.00;;;4.30;99.90;;;;;;2088578;28;20032;-74
2023/03/17 01:15:30;;;;;;;15.88;9.35;;;4.30;99.90;;;;;;2085992;28;20020;-74
2023/03/17 01:16:31;;;;;;;15.73;9.38;;;4.30;99.90;;;;;;2077830;28;20048;-77
2023/03/17 01:17:32;;;;;;;15.60;9.00;;;4.30;99.90;;;;;;2077823;28;20065;-74
2023/03/17 01:18:33;;;;;;;14.48;9.20;;;4.20;99.90;;;;;;2077700;28;20040;-76
2023/03/17 01:19:34;;;;;;;15.63;8.65;;;4.30;99.90;;;;;;2079548;28;20027;-73
2023/03/17 01:20:34;;;;;;;16.08;9.00;;;4.20;99.90;;;;;;2085156;28;20577;-73
2023/03/17 01:21:35;;;;;;;16.23;8.88;;;4.20;99.90;;;;;;2079305;28;20029;-72
2023/03/17 01:22:36;;;;;;;18.15;8.77;;;4.20;99.90;;;;;;2086779;28;20033;-72
2023/03/17 01:23:36;;;;;;;13.60;8.82;;;4.20;99.90;;;;;;2088745;28;20036;-71
2023/03/17 01:24:38;;;;;;;14.77;9.25;;;4.20;99.90;;;;;;2077422;28;20072;-72
2023/03/17 01:25:41;;;;;;;16.83;8.98;;;4.20;99.90;;;;;;2069261;28;20141;-72
2023/03/17 01:26:42;;;;;;;16.35;9.15;;;4.20;99.90;;;;;;2074658;28;20025;-72
2023/03/17 01:27:43;;;;;;;17.10;8.80;;;4.20;99.90;;;;;;2088395;28;20029;-73
2023/03/17 01:28:44;;;;;;;17.13;8.98;;;4.20;99.90;;;;;;2087617;28;20127;-72
2023/03/17 01:29:45;;;;;;;15.70;8.57;;;4.20;99.90;;;;;;2087688;28;20034;-73
2023/03/17 01:30:46;;;;;;;14.57;8.35;;;4.20;99.90;;;;;;2086169;28;20032;-72
2023/03/17 01:31:46;;;;;;;16.20;8.73;;;4.20;99.90;;;;;;2082376;28;20144;-73
2023/03/17 01:32:47;;;;;;;16.27;8.57;;;4.20;99.90;;;;;;2086562;28;20541;-73
2023/03/17 01:33:48;;;;;;;14.55;8.85;;;4.20;99.90;;;;;;2085667;28;20052;-73
2023/03/17 01:34:49;;;;;;;14.80;9.20;;;4.20;99.90;;;;;;2081498;28;20030;-74
2023/03/17 01:35:50;;;;;;;15.68;8.82;;;4.20;99.90;;;;;;2088921;28;20021;-73
2023/03/17 01:36:50;;;;;;;16.92;9.32;;;4.20;99.90;;;;;;2087750;28;20543;-73
2023/03/17 01:37:52;;;;;;;13.85;8.50;;;4.20;99.90;;;;;;2087099;28;20031;-72
2023/03/17 01:38:52;;;;;;;13.90;8.85;;;4.20;99.90;;;;;;2085901;28;20023;-72
2023/03/17 01:39:53;;;;;;;13.38;8.52;;;4.20;99.90;;;;;;2081700;28;20487;-73
2023/03/17 01:40:54;;;;;;;16.42;8.95;;;4.20;99.90;;;;;;2085439;28;20032;-72
2023/03/17 01:42:00;;;;;;;16.42;9.15;;;4.20;99.90;;;;;;2084332;28;20035;-72
2023/03/17 01:43:07;;;;;;;17.00;9.00;;;4.20;99.90;;;;;;2087456;28;20048;-73
2023/03/17 01:44:14;;;;;;;15.20;8.80;;;4.20;99.90;;;;;;2077934;28;20500;-72
2023/03/17 01:45:53;;;;;;;16.00;8.23;;;4.20;99.90;;;;;;2080179;28;20052;-73
2023/03/17 01:46:54;;;;;;;14.70;8.65;;;4.20;99.90;;;;;;2087518;28;20028;-74
2023/03/17 01:47:55;;;;;;;18.30;8.75;;;4.30;99.90;;;;;;2075749;28;20036;-73
2023/03/17 01:49:08;;;;;;;13.63;8.82;;;4.30;99.90;;;;;;2071525;28;20108;-73
2023/03/17 01:50:09;;;;;;;12.63;7.82;;;4.30;99.90;;;;;;2086659;28;20133;-74
2023/03/17 01:51:15;;;;;;;14.13;8.15;;;4.30;99.90;;;;;;2087841;28;20044;-73
2023/03/17 01:52:19;;;;;;;13.77;8.25;;;4.30;99.90;;;;;;2084951;28;20102;-74
2023/03/17 01:53:22;;;;;;;14.07;8.15;;;4.20;99.90;;;;;;2085169;28;20067;-74
2023/03/17 01:54:44;;;;;;;13.65;8.13;;;4.20;99.90;;;;;;2080314;28;20136;-74
2023/03/17 01:55:45;;;;;;;13.93;8.30;;;4.20;99.90;;;;;;2075048;28;20708;-72
2023/03/17 01:56:49;;;;;;;14.38;8.57;;;4.20;99.90;;;;;;2076793;28;20025;-72
2023/03/17 01:57:55;;;;;;;14.35;8.23;;;4.30;99.90;;;;;;2077284;28;20028;-73
2023/03/17 01:58:59;;;;;;;15.65;8.30;;;4.30;99.90;;;;;;2077649;28;20067;-73
2023/03/17 02:00:10;;;;;;;14.65;8.60;;;4.30;99.90;;;;;;2085032;28;20029;-72
2023/03/17 02:01:14;;;;;;;16.02;8.27;;;4.30;99.90;;;;;;2079997;28;20037;-74
2023/03/17 02:02:21;;;;;;;13.82;8.10;;;4.30;99.90;;;;;;2081394;28;20503;-73
2023/03/17 02:03:22;;;;;;;12.63;7.40;;;4.30;99.90;;;;;;2088867;28;20024;-73
2023/03/17 02:04:25;;;;;;;14.43;7.85;;;4.30;99.90;;;;;;2088692;28;20044;-72
2023/03/17 02:05:29;;;;;;;14.60;8.65;;;4.20;99.90;;;;;;2085192;28;20133;-72
2023/03/17 02:06:31;;;;;;;17.05;8.13;;;4.20;99.90;;;;;;2089062;28;20032;-72
2023/03/17 02:07:31;;;;;;;15.23;8.52;;;4.20;99.90;;;;;;2092295;28;20036;-73
2023/03/17 02:08:32;;;;;;;15.18;8.32;;;4.20;99.90;;;;;;2088058;28;20028;-72
2023/03/17 02:09:35;;;;;;;13.43;7.95;;;4.20;99.90;;;;;;2071527;28;20021;-72
2023/03/17 02:10:36;;;;;;;13.82;7.70;;;4.20;99.90;;;;;;2087549;28;20044;-73
2023/03/17 02:11:37;;;;;;;14.40;7.63;;;4.30;99.90;;;;;;2075827;28;20039;-73
2023/03/17 02:12:41;;;;;;;13.27;7.80;;;4.30;99.90;;;;;;2081935;28;20485;-73
2023/03/17 02:13:43;;;;;;;15.10;8.20;;;4.30;99.90;;;;;;2089690;28;20021;-73
2023/03/17 02:14:44;;;;;;;12.20;7.78;;;4.30;99.90;;;;;;2089967;28;20774;-73
2023/03/17 02:15:47;;;;;;;13.38;7.70;;;4.30;99.90;;;;;;2087161;28;20029;-73
2023/03/17 02:16:48;;;;;;;11.95;7.68;;;4.30;99.90;;;;;;2080582;28;20025;-72
2023/03/17 02:17:50;;;;;;;13.13;7.72;;;4.30;99.90;;;;;;2088148;28;20033;-74
2023/03/17 02:18:51;;;;;;;14.63;7.88;;;4.40;99.90;;;;;;2088401;28;20113;-72
2023/03/17 02:19:54;;;;;;;11.38;7.43;;;4.40;99.90;;;;;;2089126;28;20028;-72
2023/03/17 02:20:57;;;;;;;15.32;7.75;;;4.40;99.90;;;;;;2086676;28;20024;-71
2023/03/17 02:21:59;;;;;;;13.48;7.57;;;4.40;99.90;;;;;;2091490;28;20147;-72
2023/03/17 02:23:01;;;;;;;13.70;7.82;;;4.30;99.90;;;;;;2077106;28;20645;-73
2023/03/17 02:24:07;;;;;;;16.23;8.15;;;4.30;99.90;;;;;;2059401;28;20104;-78
2023/03/17 02:25:11;;;;;;;14.73;7.60;;;4.30;99.90;;;;;;2071795;28;20021;-75
2023/03/17 02:26:11;;;;;;;12.95;7.88;;;4.30;99.90;;;;;;2088053;28;20044;-72
2023/03/17 02:27:21;;;;;;;15.15;7.88;;;4.30;99.90;;;;;;2089784;28;20028;-72
2023/03/17 02:28:26;;;;;;;13.40;7.45;;;4.30;99.90;;;;;;2080943;28;20040;-73
2023/03/17 02:29:27;;;;;;;13.60;8.10;;;4.30;99.90;;;;;;2075983;28;20029;-73
2023/03/17 02:30:28;;;;;;;14.85;7.70;;;4.30;99.90;;;;;;2088255;28;20031;-73
2023/03/17 02:31:29;;;;;;;13.65;7.85;;;4.40;99.90;;;;;;2080746;28;20021;-72
2023/03/17 02:32:33;;;;;;;12.07;7.57;;;4.40;99.90;;;;;;2079511;28;20507;-73
2023/03/17 02:33:33;;;;;;;12.70;7.40;;;4.40;99.90;;;;;;2077635;28;20112;-73
2023/03/17 02:34:34;;;;;;;15.93;7.72;;;4.40;99.90;;;;;;2085434;28;20102;-72
2023/03/17 02:35:35;;;;;;;12.75;7.88;;;4.40;99.90;;;;;;2091687;28;20049;-73
2023/03/17 02:36:36;;;;;;;13.40;7.70;;;4.40;99.90;;;;;;2081463;28;20071;-74
2023/03/17 02:37:37;;;;;;;12.07;7.72;;;4.40;99.90;;;;;;2089595;28;20424;-73
2023/03/17 02:38:37;;;;;;;12.80;7.60;;;4.40;99.90;;;;;;2090354;28;20036;-73
2023/03/17 02:39:38;;;;;;;11.43;6.93;;;4.40;99.90;;;;;;2090270;28;20032;-73
2023/03/17 02:40:39;;;;;;;12.27;7.72;;;4.40;99.90;;;;;;2089858;28;20029;-73
2023/03/17 02:41:40;;;;;;;13.07;7.65;;;4.40;99.90;;;;;;2083583;28;20112;-73
2023/03/17 02:42:42;;;;;;;12.40;7.57;;;4.50;99.90;;;;;;2080536;28;20033;-72
2023/03/17 02:43:42;;;;;;;13.10;7.43;;;4.50;99.90;;;;;;2081235;28;20060;-73
2023/03/17 02:44:43;;;;;;;12.95;7.80;;;4.50;99.90;;;;;;2084721;28;20024;-73
2023/03/17 02:45:44;;;;;;;11.05;7.10;;;4.50;99.90;;;;;;2092695;28;20694;-73
2023/03/17 02:46:45;;;;;;;12.55;7.53;;;4.50;99.90;;;;;;2085564;28;20035;-73
2023/03/17 02:47:48;;;;;;;14.07;7.70;;;4.50;99.90;;;;;;2078991;28;21070;-73
2023/03/17 02:48:49;;;;;;;13.88;7.80;;;4.50;99.90;;;;;;2077929;28;20091;-73
2023/03/17 02:49:49;;;;;;;12.30;7.47;;;4.50;99.90;;;;;;2087172;28;20040;-73
2023/03/17 02:50:50;;;;;;;12.05;7.30;;;4.60;99.90;;;;;;2091483;28;20031;-72
2023/03/17 02:51:52;;;;;;;11.85;7.10;;;4.60;99.90;;;;;;2081697;28;20538;-72
2023/03/17 02:52:52;;;;;;;12.85;7.88;;;4.60;99.90;;;;;;2084998;28;20053;-73
2023/03/17 02:53:53;;;;;;;11.98;7.57;;;4.60;99.90;;;;;;2084995;28;20036;-73
2023/03/17 02:54:54;;;;;;;13.27;7.60;;;4.60;99.90;;;;;;2091852;28;20489;-72
2023/03/17 02:55:55;;;;;;;11.23;7.30;;;4.70;99.90;;;;;;2083202;28;20031;-72
2023/03/17 02:56:55;;;;;;;12.75;7.43;;;4.70;99.90;;;;;;2083959;28;20688;-72
2023/03/17 02:57:57;;;;;;;14.05;7.50;;;4.70;99.90;;;;;;2090239;28;20063;-72
2023/03/17 02:58:58;;;;;;;10.85;7.20;;;4.60;99.90;;;;;;2092105;28;20414;-72
2023/03/17 02:59:59;;;;;;;10.55;7.15;;;4.70;99.90;;;;;;2082785;28;20025;-71
2023/03/17 03:00:59;;;;;;;15.65;7.93;;;4.70;99.90;;;;;;2087098;28;20387;-73
2023/03/17 03:02:00;;;;;;;11.90;7.20;;;4.70;99.90;;;;;;2079069;28;20119;-72
2023/03/17 03:03:01;;;;;;;12.68;7.53;;;4.60;99.90;;;;;;2091854;28;20103;-73
2023/03/17 03:04:02;;;;;;;12.05;7.30;;;4.70;99.90;;;;;;2088112;28;20425;-73
2023/03/17 03:05:04;;;;;;;12.05;7.43;;;4.70;99.70;;;;;;2080172;28;20036;-72
2023/03/17 03:06:05;;;;;;;13.15;7.45;;;4.70;99.90;;;;;;2084851;28;20021;-73
2023/03/17 03:07:06;;;;;;;11.20;7.15;;;4.70;99.90;;;;;;2084181;28;20055;-73
2023/03/17 03:08:07;;;;;;;11.30;7.18;;;4.70;99.90;;;;;;2086526;28;20136;-70
2023/03/17 03:09:10;;;;;;;12.15;7.30;;;4.70;99.90;;;;;;2083094;28;20060;-71
2023/03/17 03:10:11;;;;;;;12.65;7.68;;;4.60;99.90;;;;;;2081555;28;20053;-72
2023/03/17 03:11:11;;;;;;;12.65;7.35;;;4.60;99.90;;;;;;2087009;28;20513;-73
2023/03/17 03:12:12;;;;;;;13.55;7.75;;;4.60;99.90;;;;;;2081226;28;20547;-73
2023/03/17 03:13:13;;;;;;;13.73;7.95;;;4.60;99.90;;;;;;2078748;28;20543;-73
2023/03/17 03:14:14;;;;;;;13.32;7.72;;;4.60;99.90;;;;;;2084182;28;20048;-72
2023/03/17 03:15:14;;;;;;;12.52;7.43;;;4.70;99.30;;;;;;2084851;28;20131;-72
2023/03/17 03:16:15;;;;;;;10.88;7.40;;;4.70;99.20;;;;;;2091616;28;20115;-73
2023/03/17 03:17:17;;;;;;;12.07;7.30;;;4.70;99.50;;;;;;2086299;28;20037;-71
2023/03/17 03:18:17;;;;;;;13.02;7.45;;;4.70;98.60;;;;;;2078102;28;20029;-71
2023/03/17 03:19:18;;;;;;;11.95;7.13;;;4.70;99.00;;;;;;2085903;28;20462;-73
2023/03/17 03:20:19;;;;;;;15.65;7.57;;;4.70;98.90;;;;;;2087011;28;20052;-72
2023/03/17 03:21:21;;;;;;;13.25;7.93;;;4.70;99.30;;;;;;2081298;28;20025;-71
2023/03/17 03:22:21;;;;;;;14.65;8.10;;;4.70;99.20;;;;;;2086885;28;20048;-72
2023/03/17 03:23:22;;;;;;;12.82;7.50;;;4.70;99.60;;;;;;2085227;28;20115;-71
2023/03/17 03:24:23;;;;;;;11.95;7.15;;;4.60;99.70;;;;;;2085686;28;20033;-74
2023/03/17 03:25:23;;;;;;;14.13;7.80;;;4.70;99.90;;;;;;2076709;28;20029;-74
2023/03/17 03:26:24;;;;;;;12.77;7.25;;;4.70;99.90;;;;;;2066911;28;20181;-72
2023/03/17 03:27:25;;;;;;;12.70;7.50;;;4.60;99.40;;;;;;2085501;28;20554;-72
2023/03/17 03:28:25;;;;;;;11.95;7.20;;;4.60;99.30;;;;;;2087200;28;20039;-72
2023/03/17 03:29:26;;;;;;;11.75;7.20;;;4.70;99.30;;;;;;2087136;28;20093;-72
2023/03/17 03:30:27;;;;;;;14.10;7.45;;;4.60;98.80;;;;;;2083951;28;20805;-72
2023/03/17 03:31:27;;;;;;;14.10;7.65;;;4.70;98.10;;;;;;2080577;28;20102;-73
2023/03/17 03:32:29;;;;;;;15.77;7.82;;;4.70;98.60;;;;;;2072509;28;20032;-72
2023/03/17 03:33:30;;;;;;;14.63;7.53;;;4.70;98.70;;;;;;2078388;28;20031;-73
2023/03/17 03:34:30;;;;;;;12.77;7.40;;;4.70;99.20;;;;;;2087476;28;20033;-73
2023/03/17 03:35:33;;;;;;;13.57;7.85;;;4.60;99.40;;;;;;2086771;28;20021;-73
2023/03/17 03:36:34;;;;;;;14.90;7.65;;;4.60;99.60;;;;;;2082140;28;20074;-74
2023/03/17 03:37:34;;;;;;;13.00;7.60;;;4.60;99.50;;;;;;2092117;28;20109;-72
2023/03/17 03:38:35;;;;;;;14.23;7.43;;;4.60;99.80;;;;;;2085342;28;20024;-72
2023/03/17 03:39:37;;;;;;;13.63;7.93;;;4.60;99.90;;;;;;2088437;28;20707;-72
2023/03/17 03:40:38;;;;;;;12.63;7.72;;;4.50;99.90;;;;;;2089989;28;20020;-72
2023/03/17 03:41:40;;;;;;;15.80;7.68;;;4.50;99.90;;;;;;2087252;28;20071;-73
2023/03/17 03:42:40;;;;;;;13.07;7.43;;;4.50;99.90;;;;;;2086554;28;20029;-72
2023/03/17 03:43:41;;;;;;;12.50;7.35;;;4.50;99.90;;;;;;2078248;28;20578;-73
2023/03/17 03:44:42;;;;;;;12.27;7.28;;;4.60;99.90;;;;;;2077767;28;20108;-72
2023/03/17 03:45:42;;;;;;;13.98;7.82;;;4.60;99.30;;;;;;2085599;28;20032;-72
2023/03/17 03:46:43;;;;;;;13.07;7.95;;;4.60;99.40;;;;;;2087821;28;20035;-72
2023/03/17 03:47:44;;;;;;;15.23;7.65;;;4.60;99.20;;;;;;2084593;28;20021;-73
2023/03/17 03:48:45;;;;;;;14.65;7.38;;;4.70;99.20;;;;;;2084688;28;20025;-74
2023/03/17 03:49:45;;;;;;;17.40;8.00;;;4.60;99.70;;;;;;2087125;28;20748;-72
2023/03/17 03:50:46;;;;;;;12.60;7.72;;;4.60;99.90;;;;;;2086399;28;20063;-74
2023/03/17 03:51:47;;;;;;;13.73;8.18;;;4.60;99.90;;;;;;2088582;28;20028;-72
2023/03/17 03:52:48;;;;;;;13.63;7.28;;;4.60;99.90;;;;;;2085452;28;20091;-73
2023/03/17 03:53:48;;;;;;;13.25;7.90;;;4.60;99.90;;;;;;2085597;28;20396;-72
2023/03/17 03:54:49;;;;;;;14.90;7.72;;;4.60;99.50;;;;;;2086712;28;20032;-73
2023/03/17 03:55:49;;;;;;;14.80;7.68;;;4.60;99.20;;;;;;2085346;28;20021;-72
2023/03/17 03:56:50;;;;;;;13.13;7.93;;;4.60;99.30;;;;;;2090044;28;20937;-72
2023/03/17 03:57:51;;;;;;;12.75;7.63;;;4.60;99.90;;;;;;2086231;28;20020;-73
2023/03/17 03:58:51;;;;;;;12.73;8.30;;;4.60;99.90;;;;;;2086558;28;20496;-72
2023/03/17 03:59:52;;;;;;;12.77;7.72;;;4.50;99.90;;;;;;2082197;28;20053;-73
2023/03/17 04:00:52;;;;;;;15.55;7.88;;;4.60;99.80;;;;;;2085891;28;20751;-73
2023/03/17 04:01:53;;;;;;;16.17;8.07;;;4.50;99.90;;;;;;2084637;28;20516;-74
2023/03/17 04:02:54;;;;;;;14.00;7.88;;;4.50;99.90;;;;;;2083694;28;20092;-74
2023/03/17 04:03:54;;;;;;;11.82;7.28;;;4.50;99.90;;;;;;2078603;28;20033;-75
2023/03/17 04:04:55;;;;;;;12.52;7.70;;;4.50;99.90;;;;;;2086385;28;20035;-74
2023/03/17 04:05:55;;;;;;;11.85;7.40;;;4.50;99.90;;;;;;2085186;28;20028;-74
2023/03/17 04:06:56;;;;;;;12.85;7.57;;;4.50;99.90;;;;;;2090894;28;20051;-73
2023/03/17 04:07:56;;;;;;;11.32;7.40;;;4.40;99.90;;;;;;2086089;28;20097;-74
2023/03/17 04:08:57;;;;;;;14.38;8.15;;;4.40;99.90;;;;;;2086149;28;20032;-73
2023/03/17 04:09:58;;;;;;;16.20;8.25;;;4.40;99.90;;;;;;2084823;28;20526;-74
2023/03/17 04:10:59;;;;;;;13.90;7.95;;;4.50;99.90;;;;;;2086138;28;20017;-73
2023/03/17 04:11:59;;;;;;;13.32;8.05;;;4.50;99.90;;;;;;2089613;28;20087;-73
2023/03/17 04:13:00;;;;;;;12.07;7.68;;;4.40;99.90;;;;;;2088270;28;20032;-72
2023/03/17 04:14:01;;;;;;;11.73;7.22;;;4.40;99.90;;;;;;2085658;28;20025;-74
2023/03/17 04:15:03;;;;;;;13.18;8.07;;;4.40;99.90;;;;;;2087604;28;20020;-72
2023/03/17 04:16:04;;;;;;;12.52;7.85;;;4.40;99.90;;;;;;2089554;28;20115;-74
2023/03/17 04:17:04;;;;;;;14.35;7.82;;;4.40;99.90;;;;;;2086042;28;20043;-72
2023/03/17 04:18:05;;;;;;;14.45;8.18;;;4.40;99.90;;;;;;2077461;28;20029;-74
2023/03/17 04:19:05;;;;;;;11.35;7.20;;;4.40;99.90;;;;;;2073198;28;20673;-73
2023/03/17 04:20:07;;;;;;;12.13;7.53;;;4.40;99.90;;;;;;2089060;28;20024;-73
2023/03/17 04:21:07;;;;;;;16.38;8.10;;;4.40;99.90;;;;;;2088359;28;20031;-73
2023/03/17 04:22:10;;;;;;;12.38;7.47;;;4.40;99.90;;;;;;2087747;28;20033;-73
2023/03/17 04:23:11;;;;;;;11.82;7.68;;;4.40;99.90;;;;;;2084314;28;20033;-73
2023/03/17 04:24:13;;;;;;;12.10;7.55;;;4.30;99.90;;;;;;2085984;28;20031;-73
2023/03/17 04:25:14;;;;;;;13.18;7.65;;;4.40;99.90;;;;;;2087504;28;20043;-72
2023/03/17 04:26:17;;;;;;;12.85;7.85;;;4.30;99.90;;;;;;2089198;28;20032;-74
2023/03/17 04:27:18;;;;;;;11.32;7.20;;;4.30;99.90;;;;;;2086270;28;20128;-73
2023/03/17 04:28:19;;;;;;;12.25;7.82;;;4.30;99.90;;;;;;2077730;28;20119;-74
2023/03/17 04:29:19;;;;;;;12.65;7.60;;;4.30;99.90;;;;;;2086269;28;20067;-74
2023/03/17 04:30:20;;;;;;;13.10;7.70;;;4.30;99.90;;;;;;2089900;28;20033;-72
2023/03/17 04:31:21;;;;;;;14.00;7.82;;;4.40;99.90;;;;;;2087585;28;20112;-74
2023/03/17 04:32:22;;;;;;;15.30;8.20;;;4.40;99.90;;;;;;2087241;28;20090;-74
2023/03/17 04:33:22;;;;;;;13.45;7.70;;;4.40;99.90;;;;;;2083849;28;20028;-73
2023/03/17 04:34:23;;;;;;;14.32;8.15;;;4.30;99.90;;;;;;2082575;28;20094;-74
2023/03/17 04:35:23;;;;;;;13.43;8.02;;;4.30;99.90;;;;;;2085642;28;20066;-73
2023/03/17 04:36:25;;;;;;;11.05;7.43;;;4.40;99.90;;;;;;2083666;28;20047;-73
2023/03/17 04:37:26;;;;;;;15.32;8.23;;;4.40;99.90;;;;;;2087007;28;20058;-73
2023/03/17 04:38:27;;;;;;;14.68;8.68;;;4.30;99.90;;;;;;2087299;28;20845;-73
2023/03/17 04:39:27;;;;;;;15.25;7.80;;;4.30;99.90;;;;;;2078032;28;20136;-73
2023/03/17 04:40:28;;;;;;;16.15;8.60;;;4.30;99.90;;;;;;2071094;28;20136;-74
2023/03/17 04:41:29;;;;;;;14.70;8.52;;;4.30;99.90;;;;;;2087354;28;20060;-74
2023/03/17 04:42:29;;;;;;;14.40;7.72;;;4.30;99.90;;;;;;2087905;28;20041;-74
2023/03/17 04:43:30;;;;;;;13.18;7.97;;;4.30;99.90;;;;;;2087285;28;20035;-73
2023/03/17 04:44:31;;;;;;;13.10;8.00;;;4.30;99.90;;;;;;2080202;28;20032;-73
2023/03/17 04:45:32;;;;;;;14.18;8.40;;;4.20;99.90;;;;;;2077954;28;20033;-73
2023/03/17 04:46:33;;;;;;;11.45;7.60;;;4.20;99.90;;;;;;2085826;28;20120;-72
2023/03/17 04:47:34;;;;;;;14.52;7.88;;;4.20;99.90;;;;;;2086738;28;20080;-72
2023/03/17 04:48:35;;;;;;;11.50;7.75;;;4.20;99.90;;;;;;2088832;28;20036;-73
2023/03/17 04:49:36;;;;;;;13.07;8.02;;;4.20;99.90;;;;;;2089916;28;20021;-72
2023/03/17 04:50:37;;;;;;;14.00;8.00;;;4.10;99.90;;;;;;2085982;28;20638;-73
2023/03/17 04:51:38;;;;;;;16.13;8.55;;;4.10;99.90;;;;;;2084751;28;20043;-73
2023/03/17 04:52:39;;;;;;;15.80;8.30;;;4.10;99.90;;;;;;2086981;28;20036;-73
2023/03/17 04:53:40;;;;;;;15.05;8.52;;;4.20;99.90;;;;;;2085708;28;20039;-73
2023/03/17 04:54:41;;;;;;;14.55;8.50;;;4.20;99.90;;;;;;2086957;28;20116;-73
2023/03/17 04:55:41;;;;;;;13.77;8.05;;;4.20;99.90;;;;;;2087098;28;20126;-73
2023/03/17 04:56:42;;;;;;;14.65;8.30;;;4.20;99.90;;;;;;2085454;28;20021;-73
2023/03/17 04:57:43;;;;;;;14.10;8.18;;;4.10;99.90;;;;;;2086587;28;20082;-71
2023/03/17 04:58:44;;;;;;;15.88;8.80;;;4.10;99.90;;;;;;2089233;28;20472;-73
2023/03/17 04:59:45;;;;;;;14.85;8.43;;;4.10;99.90;;;;;;2083964;28;20180;-72
2023/03/17 05:00:45;;;;;;;15.63;8.40;;;4.10;99.90;;;;;;2078893;28;20107;-72
2023/03/17 05:01:46;;;;;;;13.65;8.05;;;4.10;99.90;;;;;;2078848;28;20604;-73
2023/03/17 05:02:47;;;;;;;14.48;8.25;;;4.10;99.90;;;;;;2084427;28;20149;-72
2023/03/17 05:03:48;;;;;;;12.93;8.13;;;4.00;99.90;;;;;;2085476;28;20556;-74
2023/03/17 05:04:48;;;;;;;15.23;8.75;;;4.00;99.90;;;;;;2087071;28;20024;-72
2023/03/17 05:05:49;;;;;;;14.50;8.35;;;4.10;99.90;;;;;;2086287;28;20684;-73
2023/03/17 05:06:50;;;;;;;14.45;8.68;;;4.10;99.90;;;;;;2085889;28;20091;-72
2023/03/17 05:07:51;;;;;;;13.43;8.98;;;4.10;99.90;;;;;;2084561;28;20025;-73
2023/03/17 05:08:52;;;;;;;14.80;8.95;;;4.10;99.90;;;;;;2082623;28;20554;-71
2023/03/17 05:09:52;;;;;;;14.63;9.23;;;4.10;99.90;;;;;;2083923;28;20066;-72
2023/03/17 05:10:55;;;;;;;15.25;8.75;;;4.10;99.90;;;;;;2087986;28;20047;-72
2023/03/17 05:11:55;;;;;;;14.52;8.73;;;4.10;99.90;;;;;;2089004;28;20487;-73
2023/03/17 05:12:56;;;;;;;13.88;8.43;;;4.00;99.90;;;;;;2082517;28;20021;-73
2023/03/17 05:13:56;;;;;;;15.18;8.15;;;4.00;99.90;;;;;;2081744;28;20568;-74
2023/03/17 05:14:57;;;;;;;14.32;8.85;;;4.00;99.90;;;;;;2086482;28;20017;-73
2023/03/17 05:15:59;;;;;;;13.43;8.30;;;4.00;99.90;;;;;;2084216;28;20503;-73
2023/03/17 05:17:00;;;;;;;14.95;8.32;;;4.00;99.90;;;;;;2083105;28;20036;-72
2023/03/17 05:18:01;;;;;;;16.20;8.52;;;4.00;99.90;;;;;;2089113;28;20021;-74
2023/03/17 05:19:02;;;;;;;16.42;8.30;;;4.00;99.90;;;;;;2088458;28;20048;-73
2023/03/17 05:20:03;;;;;;;15.10;8.50;;;4.00;99.90;;;;;;2087467;28;20384;-72